createdAt,value
2018-05-15T03:01:11.414Z,4.00
2018-05-15T03:02:11.982Z,4.00
2018-05-15T03:03:12.553Z,4.00
2018-05-15T03:05:12.088Z,4.00
2018-05-15T03:06:17.260Z,8.00
2018-05-15T03:07:13.746Z,8.00
2018-05-15T03:08:13.059Z,8.00
2018-05-15T03:09:12.566Z,8.00
2018-05-15T03:10:10.609Z,8.00
2018-05-15T03:11:10.615Z,12.00
2018-05-15T03:12:11.015Z,16.00
2018-05-15T03:13:11.023Z,16.00
2018-05-15T03:14:11.064Z,20.00
2018-05-15T03:15:11.359Z,24.00
2018-05-15T03:16:11.320Z,24.00
2018-05-15T03:17:11.605Z,32.00
2018-05-15T03:18:11.758Z,32.00
2018-05-15T03:19:11.948Z,40.00
2018-05-15T03:20:12.077Z,48.00
2018-05-15T03:21:12.761Z,52.00
2018-05-15T03:22:12.800Z,56.00
2018-05-15T03:23:12.728Z,64.00
2018-05-15T03:24:12.929Z,72.00
2018-05-15T03:25:13.079Z,80.00
2018-05-15T03:26:13.436Z,88.00
2018-05-15T03:27:13.656Z,100.00
2018-05-15T03:28:13.824Z,104.00
2018-05-15T03:29:13.864Z,116.00
2018-05-15T03:30:14.089Z,124.00
2018-05-15T03:31:14.471Z,140.00
2018-05-15T03:32:15.213Z,148.00
2018-05-15T03:33:14.636Z,164.00
2018-05-15T03:34:14.763Z,172.00
2018-05-15T03:35:14.949Z,188.00
2018-05-15T03:36:15.129Z,200.00
2018-05-15T03:37:15.294Z,216.00
2018-05-15T03:38:15.503Z,228.00
2018-05-15T03:39:15.566Z,240.00
2018-05-15T03:40:15.770Z,256.00
2018-05-15T03:41:15.892Z,272.00
2018-05-15T03:42:16.151Z,284.00
2018-05-15T03:43:16.421Z,300.00
2018-05-15T03:44:16.360Z,316.00
2018-05-15T03:45:16.569Z,332.00
2018-05-15T03:46:16.722Z,352.00
2018-05-15T03:47:16.869Z,364.00
2018-05-15T03:48:17.057Z,380.00
2018-05-15T03:49:17.325Z,396.00
2018-05-15T03:50:17.540Z,412.00
2018-05-15T03:51:17.495Z,428.00
2018-05-15T03:52:17.939Z,448.00
2018-05-15T03:53:17.878Z,460.00
2018-05-15T03:54:18.155Z,480.00
2018-05-15T03:55:18.288Z,504.00
2018-05-15T03:56:18.409Z,524.00
2018-05-15T03:57:18.651Z,548.00
2018-05-15T03:58:18.744Z,572.00
2018-05-15T03:59:18.892Z,600.00
2018-05-15T04:00:19.014Z,636.00
2018-05-15T04:01:19.396Z,664.00
2018-05-15T04:02:19.401Z,696.00
2018-05-15T04:03:19.742Z,724.00
2018-05-15T04:04:19.865Z,748.00
2018-05-15T04:05:20.196Z,776.00
2018-05-15T04:06:20.388Z,808.00
2018-05-15T04:07:20.510Z,848.00
2018-05-15T04:08:20.647Z,888.00
2018-05-15T04:09:20.930Z,936.00
2018-05-15T04:10:21.375Z,984.00
2018-05-15T04:11:21.005Z,1032.00
2018-05-15T04:12:21.648Z,1064.00
2018-05-15T04:13:21.310Z,1096.00
2018-05-15T04:14:21.781Z,1124.00
2018-05-15T04:15:21.581Z,1156.00
2018-05-15T04:16:21.931Z,1180.00
2018-05-15T04:17:22.236Z,1204.00
2018-05-15T04:18:22.298Z,1224.00
2018-05-15T04:19:22.539Z,1260.00
2018-05-15T04:20:22.487Z,1324.00
2018-05-15T04:21:22.914Z,1384.00
2018-05-15T04:22:23.116Z,1440.00
2018-05-15T04:23:23.272Z,1480.00
2018-05-15T04:24:23.438Z,1516.00
2018-05-15T04:25:23.673Z,1548.00
2018-05-15T04:26:24.000Z,1576.00
2018-05-15T04:27:23.809Z,1596.00
2018-05-15T04:28:24.137Z,1628.00
2018-05-15T04:29:24.267Z,1664.00
2018-05-15T04:30:24.439Z,1700.00
2018-05-15T04:31:24.554Z,1700.00
2018-05-15T04:32:24.839Z,1684.00
2018-05-15T04:33:25.003Z,1652.00
2018-05-15T04:34:25.213Z,1628.00
2018-05-15T04:35:25.836Z,1612.00
2018-05-15T04:36:25.642Z,1608.00
2018-05-15T04:37:25.727Z,1616.00
2018-05-15T04:38:39.254Z,1628.00
2018-05-15T04:39:28.942Z,1648.00
2018-05-15T04:40:28.818Z,1676.00
2018-05-15T04:41:29.085Z,1712.00
2018-05-15T04:42:29.890Z,1756.00
2018-05-15T04:43:29.054Z,1820.00
2018-05-15T04:44:30.112Z,1900.00
2018-05-15T04:45:32.033Z,1996.00
2018-05-15T04:46:30.089Z,2112.00
2018-05-15T04:47:30.468Z,2256.00
2018-05-15T04:48:30.935Z,2392.00
2018-05-15T04:49:28.073Z,2492.00
2018-05-15T04:50:27.969Z,2572.00
2018-05-15T04:51:28.106Z,2664.00
2018-05-15T04:52:28.359Z,2736.00
2018-05-15T04:53:29.075Z,2780.00
2018-05-15T04:54:28.589Z,2800.00
2018-05-15T04:55:28.972Z,2812.00
2018-05-15T04:56:30.224Z,2812.00
2018-05-15T04:57:29.384Z,2780.00
2018-05-15T04:58:29.518Z,2764.00
2018-05-15T04:59:29.812Z,2764.00
2018-05-15T05:00:29.730Z,2784.00
2018-05-15T05:01:30.613Z,2816.00
2018-05-15T05:02:30.660Z,2888.00
2018-05-15T05:03:33.193Z,2968.00
2018-05-15T05:04:30.648Z,3040.00
2018-05-15T05:05:30.905Z,3096.00
2018-05-15T05:08:16.360Z,3192.00
2018-05-15T05:09:16.864Z,3236.00
2018-05-15T05:10:19.815Z,3296.00
2018-05-15T05:11:18.665Z,3348.00
2018-05-15T05:12:18.726Z,3420.00
2018-05-15T05:13:16.407Z,3536.00
2018-05-15T05:15:18.746Z,3652.00
2018-05-15T05:16:29.656Z,3728.00
2018-05-15T05:17:18.954Z,3788.00
2018-05-15T05:18:17.960Z,3852.00
2018-05-15T05:19:17.965Z,3948.00
2018-05-15T05:21:18.865Z,4196.00
2018-05-15T05:22:22.735Z,4344.00
2018-05-15T05:23:19.105Z,4464.00
2018-05-15T05:24:19.920Z,4620.00
2018-05-15T05:25:19.567Z,4784.00
2018-05-15T05:38:39.180Z,5816.00
2018-05-15T05:39:24.355Z,5832.00
2018-05-15T05:40:22.591Z,5860.00
2018-05-15T05:41:31.671Z,5892.00
2018-05-15T05:43:25.307Z,5824.00
2018-05-15T05:44:26.777Z,5776.00
2018-05-15T06:30:26.139Z,6716.00
2018-05-15T06:31:25.792Z,6688.00
2018-05-15T06:32:29.391Z,6648.00
2018-05-15T06:33:26.761Z,6660.00
2018-05-15T06:34:27.378Z,6748.00
2018-05-15T06:37:28.100Z,7184.00
2018-05-15T06:41:27.245Z,7600.00
2018-05-15T06:42:26.496Z,7720.00
2018-05-15T06:46:53.844Z,8752.00
2018-05-15T06:47:55.383Z,9180.00
2018-05-15T06:48:56.472Z,9676.00
2018-05-15T06:49:55.941Z,9836.00
2018-05-15T06:50:56.583Z,10152.00
2018-05-15T06:52:00.342Z,10332.00
2018-05-15T06:52:59.776Z,10404.00
2018-05-15T06:53:55.977Z,10544.00
2018-05-15T06:55:00.386Z,10408.00
2018-05-15T06:55:56.105Z,10500.00
2018-05-15T06:56:57.397Z,10144.00
2018-05-15T06:59:57.585Z,9872.00
2018-05-15T07:00:00.495Z,9540.00
2018-05-15T07:01:00.622Z,9132.00
2018-05-15T07:02:00.929Z,8716.00
2018-05-15T07:03:01.204Z,8316.00
2018-05-15T07:04:01.790Z,8028.00
2018-05-15T07:05:01.491Z,7756.00
2018-05-15T07:06:01.942Z,7460.00
2018-05-15T07:07:02.008Z,7248.00
2018-05-15T07:08:02.025Z,6980.00
2018-05-15T07:09:02.149Z,6804.00
2018-05-15T07:10:02.343Z,6728.00
2018-05-15T07:11:03.453Z,6432.00
2018-05-15T07:12:02.954Z,6416.00
2018-05-15T07:13:03.067Z,6384.00
2018-05-15T07:14:03.119Z,6328.00
2018-05-15T07:15:03.259Z,6332.00
2018-05-15T07:16:03.741Z,6320.00
2018-05-15T07:17:03.807Z,6256.00
2018-05-15T07:18:04.260Z,5980.00
2018-05-15T07:19:04.317Z,6024.00
2018-05-15T07:20:04.374Z,6136.00
2018-05-15T07:21:04.740Z,6264.00
2018-05-15T07:22:04.832Z,6372.00
2018-05-15T07:23:05.234Z,6480.00
2018-05-15T07:24:05.315Z,6452.00
2018-05-15T07:25:10.718Z,6624.00
2018-05-15T07:27:42.423Z,6740.00
2018-05-15T09:02:45.676Z,12580.00
2018-05-15T09:24:59.838Z,13304.00
2018-05-15T09:26:50.991Z,13152.00
2018-05-15T10:43:51.226Z,27936.00
2018-05-15T10:44:56.632Z,13344.00
2018-05-15T10:45:57.348Z,11996.00
2018-05-15T10:47:56.400Z,12776.00
2018-05-15T10:48:55.617Z,14876.00
2018-05-15T10:49:55.532Z,17856.00
2018-05-15T10:50:59.858Z,17728.00
2018-05-15T10:51:56.499Z,22336.00
2018-05-15T10:53:54.457Z,15680.00
2018-05-15T10:54:53.942Z,13600.00
2018-05-15T10:55:53.737Z,12264.00
2018-05-15T10:56:54.062Z,11436.00
2018-05-15T10:57:55.869Z,10672.00
2018-05-15T10:58:54.568Z,10072.00
2018-05-15T10:59:54.489Z,9656.00
2018-05-15T11:04:10.469Z,9512.00
2018-05-15T11:05:06.864Z,9588.00
2018-05-15T11:07:08.849Z,8788.00
2018-05-15T11:09:12.298Z,7196.00
2018-05-15T11:10:08.410Z,6392.00
2018-05-15T11:11:10.179Z,5632.00
2018-05-15T11:12:08.134Z,4964.00
2018-05-15T11:13:05.984Z,4480.00
2018-05-15T11:14:05.818Z,4264.00
2018-05-15T11:15:06.606Z,4072.00
2018-05-15T11:16:05.971Z,3908.00
2018-05-15T11:17:10.081Z,3772.00
2018-05-15T11:18:13.368Z,3692.00
2018-05-15T11:19:06.521Z,3668.00
2018-05-15T11:20:06.740Z,3620.00
2018-05-15T11:21:07.791Z,3640.00
2018-05-15T11:22:18.672Z,3784.00
2018-05-15T11:23:11.872Z,3884.00
2018-05-15T11:24:10.772Z,4164.00
2018-05-15T11:25:10.159Z,5000.00
2018-05-15T11:26:08.189Z,6196.00
2018-05-15T11:27:07.982Z,6924.00
2018-05-15T11:28:08.147Z,7560.00
2018-05-15T11:29:08.366Z,8240.00
2018-05-15T11:30:08.474Z,8636.00
2018-05-15T11:31:09.034Z,8708.00
2018-05-15T11:32:25.672Z,8368.00
2018-05-15T11:33:09.500Z,7948.00
2018-05-15T11:34:10.222Z,7424.00
2018-05-15T11:35:09.722Z,7096.00
2018-05-15T11:36:09.882Z,6796.00
2018-05-15T11:38:59.829Z,6512.00
2018-05-15T11:41:33.236Z,6620.00
2018-05-15T11:42:33.600Z,6296.00
2018-05-15T11:43:33.899Z,6256.00
2018-05-15T11:57:08.292Z,30688.00
2018-05-15T11:58:07.674Z,24000.00
2018-05-15T12:04:44.719Z,14688.00
2018-05-15T12:07:28.632Z,14940.00
2018-05-15T12:08:26.047Z,14680.00
2018-05-15T12:10:37.024Z,14664.00
2018-05-15T12:11:26.344Z,14376.00
2018-05-15T12:29:47.242Z,15084.00
2018-05-15T16:34:20.208Z,2324.00
2018-05-15T16:40:53.624Z,4488.00
2018-05-15T16:42:44.840Z,5532.00
2018-05-15T16:43:46.934Z,6032.00
2018-05-15T16:54:21.682Z,6432.00
2018-05-15T16:58:49.667Z,5268.00
2018-05-15T17:05:51.121Z,3796.00
2018-05-15T17:06:52.234Z,3740.00
2018-05-15T17:07:53.744Z,3756.00
2018-05-15T17:09:56.282Z,3824.00
2018-05-15T17:10:56.415Z,3860.00
2018-05-15T17:18:47.685Z,4056.00
2018-05-15T17:19:49.523Z,4060.00
2018-05-15T17:20:50.281Z,3960.00
2018-05-15T17:21:47.208Z,3856.00
2018-05-15T17:22:47.363Z,3844.00
2018-05-15T17:23:47.450Z,3856.00
2018-05-15T17:24:47.651Z,3796.00
2018-05-15T17:25:47.893Z,3692.00
2018-05-15T17:26:48.100Z,3580.00
2018-05-15T17:27:48.159Z,3468.00
2018-05-15T17:28:48.410Z,3368.00
2018-05-15T17:29:48.587Z,3280.00
2018-05-15T17:30:48.652Z,3236.00
2018-05-15T17:31:48.905Z,3100.00
2018-05-15T17:32:49.043Z,2992.00
2018-05-15T17:33:49.221Z,2936.00
2018-05-15T17:34:49.348Z,2888.00
2018-05-15T17:35:51.706Z,2884.00
2018-05-15T17:43:30.086Z,2908.00
2018-05-15T17:44:33.091Z,2972.00
2018-05-15T18:18:09.240Z,1992.00
2018-05-15T18:20:28.485Z,1808.00
2018-05-15T21:46:39.371Z,0.00
